Terminal Aerodrome Forecast
Issued by NWS Twin Cities, MN

Home | Current Version | Previous Version | Graphics & Text | Print | Product List | Glossary On
Versions: 1 2 3 4 5 6 7 8 9 10 11 12 13 14 15 16 17 18 19 20 21 22 23 24
000
FTUS43 KMPX 291737
TAFEAU
TAF
KEAU 291737Z 2918/3018 VRB03KT P6SM BKN010
     FM291830 VRB03KT P6SM SCT015
     FM292000 VRB03KT P6SM SKC
     FM301000 18003KT 2SM BR OVC003
     FM301500 20007KT P6SM SKC=

USA.gov is the U.S. government's official web portal to all federal, state and local government web resources and services.